createdAt,value
2023-03-28T00:02:17.168Z,69.57
2023-03-28T00:04:44.292Z,69.48
2023-03-28T00:07:11.983Z,69.64
2023-03-28T00:09:38.977Z,70.31
2023-03-28T00:12:06.304Z,69.99
2023-03-28T00:14:35.656Z,69.67
2023-03-28T00:17:02.645Z,69.89
2023-03-28T00:19:33.256Z,69.43
2023-03-28T00:22:00.614Z,69.51
2023-03-28T00:24:28.123Z,69.72
2023-03-28T00:26:55.099Z,69.80
2023-03-28T00:29:23.091Z,69.06
2023-03-28T00:31:51.639Z,69.83
2023-03-28T00:34:18.899Z,69.50
2023-03-28T00:36:45.935Z,69.46
2023-03-28T00:39:14.450Z,69.41
2023-03-28T00:41:44.195Z,69.76
2023-03-28T00:44:48.970Z,69.80
2023-03-28T00:47:28.041Z,70.06
2023-03-28T00:50:13.231Z,69.98
2023-03-28T00:52:47.549Z,70.47
2023-03-28T00:55:19.324Z,70.59
2023-03-28T00:57:49.112Z,70.15
2023-03-28T01:00:19.128Z,70.72
2023-03-28T01:02:53.591Z,70.53
2023-03-28T01:05:26.511Z,70.67
2023-03-28T01:07:59.312Z,70.70
2023-03-28T01:10:26.535Z,70.72
2023-03-28T01:12:56.390Z,70.55
2023-03-28T01:15:24.332Z,70.64
2023-03-28T01:18:03.083Z,70.62
2023-03-28T01:20:42.305Z,71.76
2023-03-28T01:23:33.984Z,71.44
2023-03-28T01:26:32.617Z,70.77
2023-03-28T01:29:27.697Z,71.22
2023-03-28T01:32:39.157Z,71.52
2023-03-28T01:35:24.997Z,71.25
2023-03-28T01:38:04.176Z,71.05
2023-03-28T01:41:11.628Z,71.22
2023-03-28T01:44:04.778Z,71.72
2023-03-28T01:46:44.559Z,71.47
2023-03-28T01:49:20.323Z,70.75
2023-03-28T01:52:02.482Z,70.98
2023-03-28T01:54:52.438Z,70.99
2023-03-28T01:57:26.625Z,71.15
2023-03-28T02:00:15.849Z,70.58
2023-03-28T02:03:05.909Z,70.74
2023-03-28T02:05:41.653Z,71.41
2023-03-28T02:08:14.336Z,71.14
2023-03-28T02:10:47.025Z,71.45
2023-03-28T02:13:56.250Z,71.54
2023-03-28T02:17:04.869Z,71.05
2023-03-28T02:19:55.554Z,70.93
2023-03-28T02:22:45.242Z,71.82
2023-03-28T02:25:36.656Z,71.20
2023-03-28T02:28:24.213Z,71.58
2023-03-28T02:31:11.562Z,71.37
2023-03-28T02:33:45.007Z,71.22
2023-03-28T02:36:34.379Z,71.64
2023-03-28T02:39:15.043Z,71.82
2023-03-28T02:42:03.344Z,71.51
2023-03-28T02:44:44.727Z,71.42
2023-03-28T02:47:29.992Z,71.99
2023-03-28T02:50:15.126Z,71.09
2023-03-28T02:52:52.550Z,71.59
2023-03-28T02:55:34.525Z,71.40
2023-03-28T02:59:24.606Z,71.29
2023-03-28T03:01:52.058Z,71.30
2023-03-28T03:04:19.331Z,71.91
2023-03-28T03:06:46.413Z,71.29
2023-03-28T03:09:13.396Z,71.01
2023-03-28T03:11:42.652Z,71.21
2023-03-28T03:14:09.735Z,70.81
2023-03-28T03:16:38.765Z,70.82
2023-03-28T03:19:07.759Z,71.76
2023-03-28T03:21:36.603Z,71.11
2023-03-28T03:24:04.322Z,71.96
2023-03-28T03:26:31.606Z,72.08
2023-03-28T03:29:01.710Z,71.32
2023-03-28T03:31:32.249Z,71.64
2023-03-28T03:34:02.232Z,70.98
2023-03-28T03:36:34.210Z,71.37
2023-03-28T03:39:01.699Z,71.85
2023-03-28T03:41:29.558Z,71.82
2023-03-28T03:43:56.522Z,71.75
2023-03-28T03:46:23.656Z,71.95
2023-03-28T03:48:52.057Z,72.37
2023-03-28T03:51:19.250Z,72.59
2023-03-28T03:53:50.878Z,73.00
2023-03-28T03:56:21.331Z,72.54
2023-03-28T03:59:00.501Z,72.90
2023-03-28T04:01:31.180Z,72.60
2023-03-28T04:04:24.512Z,71.98
2023-03-28T04:07:15.549Z,72.48
2023-03-28T04:09:43.410Z,72.30
2023-03-28T04:12:11.638Z,71.49
2023-03-28T04:14:45.940Z,71.19
2023-03-28T04:17:35.011Z,71.27
2023-03-28T04:20:17.548Z,70.71
2023-03-28T04:23:06.228Z,70.62
2023-03-28T04:25:34.961Z,70.79
2023-03-28T04:28:16.929Z,70.58
2023-03-28T04:31:00.275Z,70.54
2023-03-28T04:33:45.886Z,70.26
2023-03-28T04:36:18.767Z,70.57
2023-03-28T04:38:58.340Z,70.59
2023-03-28T04:41:46.280Z,70.58
2023-03-28T04:44:29.419Z,70.89
2023-03-28T04:47:03.484Z,70.74
2023-03-28T04:49:31.520Z,70.75
2023-03-28T04:51:58.557Z,70.89
2023-03-28T04:54:25.664Z,71.48
2023-03-28T04:57:08.259Z,71.30
2023-03-28T04:59:42.479Z,71.23
2023-03-28T05:02:11.711Z,71.59
2023-03-28T05:04:58.908Z,71.08
2023-03-28T05:07:26.424Z,71.34
2023-03-28T05:09:54.134Z,71.06
2023-03-28T05:12:21.380Z,71.41
2023-03-28T05:15:03.228Z,71.99
2023-03-28T05:17:31.342Z,71.97
2023-03-28T05:20:09.979Z,70.58
2023-03-28T05:22:47.498Z,69.57
2023-03-28T05:25:14.544Z,67.57
2023-03-28T05:27:41.937Z,66.68
2023-03-28T05:30:10.474Z,65.60
2023-03-28T05:32:38.918Z,61.99
2023-03-28T05:35:12.753Z,61.49
2023-03-28T05:37:41.817Z,60.76
2023-03-28T05:40:12.034Z,59.98
2023-03-28T05:42:41.536Z,59.62
2023-03-28T05:45:15.585Z,57.69
2023-03-28T05:48:06.329Z,57.55
2023-03-28T05:50:36.504Z,57.15
2023-03-28T05:53:06.934Z,56.65
2023-03-28T05:55:35.655Z,52.81
2023-03-28T05:58:04.472Z,52.79
2023-03-28T06:00:37.667Z,53.03
2023-03-28T06:03:07.889Z,52.97
2023-03-28T06:05:39.083Z,52.18
2023-03-28T06:08:18.257Z,52.29
2023-03-28T06:10:45.321Z,52.52
2023-03-28T06:13:34.772Z,53.56
2023-03-28T06:16:03.011Z,53.49
2023-03-28T06:18:33.349Z,53.79
2023-03-28T06:21:01.158Z,53.27
2023-03-28T06:23:28.780Z,53.50
2023-03-28T06:25:56.908Z,53.88
2023-03-28T06:28:25.561Z,53.57
2023-03-28T06:31:15.874Z,52.86
2023-03-28T06:33:44.481Z,52.99
2023-03-28T06:36:12.188Z,52.99
2023-03-28T06:38:39.261Z,52.86
2023-03-28T06:41:06.635Z,51.81
2023-03-28T06:43:35.807Z,51.60
2023-03-28T06:46:13.826Z,50.04
2023-03-28T06:48:44.548Z,48.19
2023-03-28T06:51:40.873Z,47.79
2023-03-28T06:54:07.829Z,47.59
2023-03-28T06:56:34.997Z,46.90
2023-03-28T06:59:02.070Z,45.08
2023-03-28T07:01:32.147Z,45.40
2023-03-28T07:04:09.661Z,43.87
2023-03-28T07:06:37.526Z,42.32
2023-03-28T07:09:06.345Z,41.86
2023-03-28T07:11:40.556Z,42.44
2023-03-28T07:14:07.579Z,42.45
2023-03-28T07:16:34.585Z,42.59
2023-03-28T07:19:01.566Z,42.45
2023-03-28T07:21:32.978Z,41.72
2023-03-28T07:24:02.638Z,41.38
2023-03-28T07:26:39.288Z,40.68
2023-03-28T07:29:08.871Z,40.38
2023-03-28T07:31:36.225Z,40.44
2023-03-28T07:34:03.447Z,40.14
2023-03-28T07:36:30.581Z,40.12
2023-03-28T07:39:06.725Z,39.33
2023-03-28T07:41:33.978Z,39.38
2023-03-28T07:44:01.191Z,39.65
2023-03-28T07:46:28.445Z,39.58
2023-03-28T07:48:56.908Z,40.11
2023-03-28T07:51:24.444Z,40.70
2023-03-28T07:53:51.926Z,41.25
2023-03-28T07:56:18.977Z,42.01
2023-03-28T07:59:10.469Z,42.62
2023-03-28T08:01:38.243Z,43.15
2023-03-28T08:04:05.360Z,43.19
2023-03-28T08:07:02.395Z,43.23
2023-03-28T08:09:29.416Z,43.57
2023-03-28T08:12:09.263Z,43.60
2023-03-28T08:14:36.249Z,44.63
2023-03-28T08:17:03.723Z,44.35
2023-03-28T08:19:33.451Z,43.77
2023-03-28T08:22:12.774Z,44.16
2023-03-28T08:24:57.157Z,44.10
2023-03-28T08:27:24.990Z,43.91
2023-03-28T08:29:58.217Z,43.39
2023-03-28T08:32:27.053Z,43.41
2023-03-28T08:34:57.821Z,43.42
2023-03-28T08:37:27.964Z,43.50
2023-03-28T08:39:56.070Z,43.38
2023-03-28T08:42:23.304Z,43.54
2023-03-28T08:45:16.525Z,41.47
2023-03-28T08:48:21.503Z,42.38
2023-03-28T08:51:06.971Z,40.96
2023-03-28T08:53:41.075Z,40.69
2023-03-28T08:56:09.033Z,41.00
2023-03-28T08:58:51.550Z,40.41
2023-03-28T09:01:22.314Z,41.24
2023-03-28T09:03:50.501Z,41.50
2023-03-28T09:06:29.625Z,40.89
2023-03-28T09:09:08.575Z,40.49
2023-03-28T09:12:02.586Z,40.73
2023-03-28T09:14:45.702Z,40.88
2023-03-28T09:17:31.408Z,41.42
2023-03-28T09:20:11.559Z,40.83
2023-03-28T09:23:24.730Z,40.54
2023-03-28T09:26:17.261Z,40.37
2023-03-28T09:29:10.453Z,39.77
2023-03-28T09:31:46.849Z,39.18
2023-03-28T09:34:27.776Z,37.54
2023-03-28T09:37:38.211Z,37.50
2023-03-28T09:40:19.469Z,37.40
2023-03-28T09:43:36.742Z,37.93
2023-03-28T09:46:30.428Z,38.75
2023-03-28T09:49:25.312Z,38.85
2023-03-28T09:52:23.928Z,39.13
2023-03-28T09:54:51.232Z,39.53
2023-03-28T09:57:18.228Z,40.17
2023-03-28T09:59:58.793Z,41.00
2023-03-28T10:02:33.982Z,39.70
2023-03-28T10:05:34.180Z,39.19
2023-03-28T10:08:40.372Z,39.14
2023-03-28T10:11:24.034Z,40.92
2023-03-28T10:13:53.350Z,40.78
2023-03-28T10:16:29.225Z,40.82
2023-03-28T10:19:14.134Z,42.32
2023-03-28T10:22:12.984Z,43.78
2023-03-28T10:24:48.057Z,45.50
2023-03-28T10:27:29.822Z,46.64
2023-03-28T10:29:58.870Z,46.17
2023-03-28T10:32:32.365Z,45.34
2023-03-28T10:35:30.261Z,43.67
2023-03-28T10:38:20.328Z,42.74
2023-03-28T10:41:27.724Z,41.99
2023-03-28T10:44:27.302Z,41.26
2023-03-28T10:47:16.541Z,41.36
2023-03-28T10:49:54.151Z,40.96
2023-03-28T10:52:33.946Z,41.88
2023-03-28T10:55:13.962Z,41.97
2023-03-28T10:58:15.813Z,41.36
2023-03-28T11:01:04.688Z,39.74
2023-03-28T11:03:46.892Z,38.87
2023-03-28T11:06:41.381Z,38.98
2023-03-28T11:09:22.461Z,38.33
2023-03-28T11:12:55.509Z,37.14
2023-03-28T11:15:44.725Z,39.03
2023-03-28T11:18:33.139Z,39.21
2023-03-28T11:21:27.059Z,38.65
2023-03-28T11:24:27.998Z,40.12
2023-03-28T11:27:16.072Z,40.02
2023-03-28T11:30:18.528Z,40.00
2023-03-28T11:33:11.346Z,39.75
2023-03-28T11:35:44.399Z,40.39
2023-03-28T11:38:37.074Z,40.41
2023-03-28T11:41:19.215Z,40.56
2023-03-28T11:44:22.095Z,41.09
2023-03-28T11:46:55.970Z,41.46
2023-03-28T11:49:46.010Z,41.90
2023-03-28T11:52:44.685Z,42.42
2023-03-28T11:55:19.054Z,42.62
2023-03-28T11:57:55.064Z,42.05
2023-03-28T12:00:49.040Z,41.85
2023-03-28T12:03:54.734Z,41.56
2023-03-28T12:06:32.983Z,42.07
2023-03-28T12:09:08.103Z,42.62
2023-03-28T12:11:43.195Z,43.25
2023-03-28T12:14:22.536Z,42.61
2023-03-28T12:16:53.364Z,42.80
2023-03-28T12:19:34.030Z,43.78
2023-03-28T12:22:16.354Z,43.55
2023-03-28T12:24:54.830Z,43.96
2023-03-28T12:27:39.018Z,45.70
2023-03-28T12:30:21.342Z,45.09
2023-03-28T12:33:05.440Z,45.84
2023-03-28T12:35:39.810Z,45.66
2023-03-28T12:38:34.230Z,45.80
2023-03-28T12:41:26.778Z,45.23
2023-03-28T12:43:59.585Z,45.33
2023-03-28T12:46:46.382Z,45.33
2023-03-28T12:49:19.013Z,45.50
2023-03-28T12:51:53.503Z,45.79
2023-03-28T12:54:31.965Z,45.84
2023-03-28T12:57:07.810Z,45.89
2023-03-28T13:00:07.900Z,45.99
2023-03-28T13:02:58.407Z,45.77
2023-03-28T13:05:38.750Z,46.40
2023-03-28T13:08:46.605Z,46.39
2023-03-28T13:11:20.209Z,45.82
2023-03-28T13:14:12.354Z,45.50
2023-03-28T13:17:01.643Z,45.68
2023-03-28T13:19:44.557Z,45.96
2023-03-28T13:22:33.434Z,45.63
2023-03-28T13:25:32.682Z,45.79
2023-03-28T13:28:11.763Z,46.34
2023-03-28T13:30:46.375Z,46.49
2023-03-28T13:33:24.289Z,46.76
2023-03-28T13:36:00.693Z,47.16
2023-03-28T13:38:27.911Z,47.13
2023-03-28T13:41:06.434Z,47.42
2023-03-28T13:43:35.867Z,47.46
2023-03-28T13:46:15.291Z,46.98
2023-03-28T13:49:10.436Z,47.23
2023-03-28T13:51:43.404Z,47.38
2023-03-28T13:54:11.928Z,47.47
2023-03-28T13:56:43.716Z,47.50
2023-03-28T13:59:22.056Z,47.38
2023-03-28T14:01:53.895Z,47.41
2023-03-28T14:04:26.663Z,47.17
2023-03-28T14:06:55.684Z,46.22
2023-03-28T14:09:28.961Z,46.36
2023-03-28T14:12:09.858Z,46.62
2023-03-28T14:14:42.788Z,46.00
2023-03-28T14:17:17.614Z,45.83
2023-03-28T14:19:53.230Z,46.32
2023-03-28T14:22:24.303Z,46.11
2023-03-28T14:24:54.292Z,46.11
2023-03-28T14:27:37.352Z,46.08
2023-03-28T14:30:16.658Z,45.29
2023-03-28T14:32:57.577Z,46.15
2023-03-28T14:35:28.557Z,46.48
2023-03-28T14:37:58.178Z,47.02
2023-03-28T14:40:25.055Z,47.32
2023-03-28T14:42:59.841Z,47.29
2023-03-28T14:45:28.675Z,47.73
2023-03-28T14:47:57.530Z,47.39
2023-03-28T14:50:29.642Z,47.13
2023-03-28T14:53:08.018Z,46.33
2023-03-28T14:55:37.735Z,45.49
2023-03-28T14:58:12.878Z,43.48
2023-03-28T15:00:48.707Z,42.29
2023-03-28T15:03:19.068Z,43.28
2023-03-28T15:05:49.958Z,42.08
2023-03-28T15:08:31.691Z,41.80
2023-03-28T15:11:06.572Z,42.21
2023-03-28T15:13:38.949Z,42.55
2023-03-28T15:16:08.268Z,42.39
2023-03-28T15:18:47.244Z,42.52
2023-03-28T15:21:15.341Z,42.22
2023-03-28T15:23:59.577Z,42.18
2023-03-28T15:26:51.224Z,42.73
2023-03-28T15:29:21.765Z,42.82
2023-03-28T15:31:49.109Z,43.21
2023-03-28T15:34:26.390Z,42.99
2023-03-28T15:37:06.982Z,43.11
2023-03-28T15:39:36.107Z,43.47
2023-03-28T15:42:24.404Z,43.27
2023-03-28T15:44:57.076Z,43.58
2023-03-28T15:47:27.183Z,43.46
2023-03-28T15:50:12.848Z,43.14
2023-03-28T15:52:42.767Z,43.62
2023-03-28T15:55:20.846Z,43.76
2023-03-28T15:57:48.383Z,43.61
2023-03-28T16:00:46.462Z,43.56
2023-03-28T16:03:16.552Z,44.13
2023-03-28T16:05:50.621Z,44.35
2023-03-28T16:08:25.736Z,44.61
2023-03-28T16:10:52.721Z,44.53
2023-03-28T16:13:40.122Z,45.23
2023-03-28T16:16:08.123Z,45.53
2023-03-28T16:18:48.234Z,45.51
2023-03-28T16:21:16.275Z,45.72
2023-03-28T16:23:43.360Z,45.69
2023-03-28T16:26:11.304Z,46.08
2023-03-28T16:28:38.412Z,46.64
2023-03-28T16:31:05.865Z,46.92
2023-03-28T16:33:32.863Z,46.40
2023-03-28T16:36:00.386Z,46.58
2023-03-28T16:38:27.946Z,47.30
2023-03-28T16:40:54.994Z,47.91
2023-03-28T16:43:21.937Z,47.71
2023-03-28T16:45:50.294Z,48.22
2023-03-28T16:48:17.466Z,47.83
2023-03-28T16:50:59.408Z,48.54
2023-03-28T16:53:26.416Z,48.61
2023-03-28T16:55:53.491Z,49.76
2023-03-28T16:58:20.550Z,51.09
2023-03-28T17:00:50.791Z,51.77
2023-03-28T17:03:18.210Z,53.51
2023-03-28T17:05:45.385Z,52.46
2023-03-28T17:08:12.462Z,53.31
2023-03-28T17:10:43.566Z,53.46
2023-03-28T17:13:11.273Z,53.39
2023-03-28T17:15:38.328Z,54.43
2023-03-28T17:18:08.180Z,54.25
2023-03-28T17:20:35.554Z,54.75
2023-03-28T17:23:04.913Z,54.75
2023-03-28T17:25:36.788Z,55.56
2023-03-28T17:28:08.917Z,56.24
2023-03-28T17:30:37.324Z,56.73
2023-03-28T17:33:04.941Z,57.79
2023-03-28T17:35:32.187Z,57.39
2023-03-28T17:37:59.231Z,57.29
2023-03-28T17:40:26.587Z,57.96
2023-03-28T17:42:53.694Z,57.52
2023-03-28T17:45:21.155Z,58.07
2023-03-28T17:47:48.737Z,57.18
2023-03-28T17:50:15.820Z,57.91
2023-03-28T17:52:42.884Z,57.74
2023-03-28T17:55:09.967Z,57.74
2023-03-28T17:57:37.161Z,57.77
2023-03-28T18:00:06.736Z,57.26
2023-03-28T18:02:45.956Z,58.79
2023-03-28T18:05:33.570Z,59.43
2023-03-28T18:08:01.059Z,59.59
2023-03-28T18:10:28.058Z,59.92
2023-03-28T18:12:55.065Z,60.12
2023-03-28T18:15:22.033Z,60.60
2023-03-28T18:17:49.116Z,60.17
2023-03-28T18:20:16.339Z,60.41
2023-03-28T18:22:43.492Z,60.59
2023-03-28T18:25:10.799Z,60.53
2023-03-28T18:27:38.319Z,60.87
2023-03-28T18:30:08.431Z,60.24
2023-03-28T18:32:36.710Z,60.00
2023-03-28T18:35:07.289Z,60.05
2023-03-28T18:37:34.547Z,61.33
2023-03-28T18:40:01.847Z,60.88
2023-03-28T18:42:30.655Z,60.82
2023-03-28T18:44:57.999Z,61.72
2023-03-28T18:47:25.134Z,61.27
2023-03-28T18:49:52.439Z,62.12
2023-03-28T18:52:19.545Z,61.63
2023-03-28T18:54:48.179Z,61.21
2023-03-28T18:57:16.165Z,61.83
2023-03-28T18:59:43.197Z,61.06
2023-03-28T19:02:13.896Z,61.16
2023-03-28T19:04:40.949Z,61.17
2023-03-28T19:07:08.625Z,61.90
2023-03-28T19:09:36.026Z,61.39
2023-03-28T19:12:03.110Z,61.73
2023-03-28T19:14:30.663Z,61.38
2023-03-28T19:16:57.735Z,61.20
2023-03-28T19:19:25.042Z,61.67
2023-03-28T19:21:52.709Z,62.01
2023-03-28T19:24:23.542Z,61.83
2023-03-28T19:26:51.137Z,62.31
2023-03-28T19:29:18.132Z,62.23
2023-03-28T19:31:46.016Z,62.59
2023-03-28T19:34:17.646Z,61.96
2023-03-28T19:36:44.918Z,61.76
2023-03-28T19:39:12.598Z,62.77
2023-03-28T19:41:40.007Z,62.90
2023-03-28T19:44:07.192Z,62.99
2023-03-28T19:46:36.367Z,63.07
2023-03-28T19:49:06.573Z,63.06
2023-03-28T19:51:34.449Z,63.19
2023-03-28T19:54:01.632Z,63.31
2023-03-28T19:56:29.064Z,64.11
2023-03-28T19:58:56.229Z,63.58
2023-03-28T20:01:23.291Z,64.21
2023-03-28T20:03:53.243Z,64.36
2023-03-28T20:06:22.451Z,64.21
2023-03-28T20:08:50.810Z,64.19
2023-03-28T20:11:18.025Z,64.16
2023-03-28T20:13:45.206Z,63.69
2023-03-28T20:16:13.272Z,63.24
2023-03-28T20:18:41.080Z,63.07
2023-03-28T20:21:11.095Z,64.15
2023-03-28T20:23:38.355Z,64.32
2023-03-28T20:26:19.961Z,64.36
2023-03-28T20:28:49.970Z,64.33
2023-03-28T20:31:18.436Z,64.18
2023-03-28T20:33:46.293Z,64.08
2023-03-28T20:36:13.461Z,63.79
2023-03-28T20:38:40.606Z,64.08
2023-03-28T20:41:12.538Z,64.34
2023-03-28T20:43:40.995Z,64.08
2023-03-28T20:46:09.831Z,64.51
2023-03-28T20:48:37.040Z,63.96
2023-03-28T20:51:19.294Z,63.81
2023-03-28T20:54:00.623Z,64.73
2023-03-28T20:56:30.074Z,63.99
2023-03-28T20:58:58.931Z,64.16
2023-03-28T21:01:28.479Z,63.69
2023-03-28T21:03:58.302Z,63.59
2023-03-28T21:06:29.042Z,64.11
2023-03-28T21:09:01.949Z,63.93
2023-03-28T21:11:31.620Z,63.93
2023-03-28T21:14:00.480Z,63.53
2023-03-28T21:16:29.124Z,63.71
2023-03-28T21:18:56.274Z,64.67
2023-03-28T21:21:23.685Z,64.50
2023-03-28T21:23:53.262Z,64.27
2023-03-28T21:26:23.056Z,64.01
2023-03-28T21:28:52.469Z,64.52
2023-03-28T21:31:22.114Z,64.68
2023-03-28T21:33:49.213Z,64.36
2023-03-28T21:36:18.326Z,65.50
2023-03-28T21:38:46.866Z,65.41
2023-03-28T21:41:14.076Z,65.18
2023-03-28T21:43:41.214Z,65.44
2023-03-28T21:46:09.394Z,65.47
2023-03-28T21:48:36.895Z,65.76
2023-03-28T21:51:04.827Z,65.76
2023-03-28T21:53:37.226Z,66.29
2023-03-28T21:56:04.913Z,66.17
2023-03-28T21:58:33.469Z,66.24
2023-03-28T22:01:02.857Z,66.09
2023-03-28T22:03:31.061Z,65.92
2023-03-28T22:05:58.392Z,65.97
2023-03-28T22:08:25.639Z,66.25
2023-03-28T22:10:56.758Z,66.00
2023-03-28T22:13:24.229Z,65.82
2023-03-28T22:15:52.786Z,65.04
2023-03-28T22:18:20.185Z,65.60
2023-03-28T22:20:53.284Z,66.26
2023-03-28T22:23:24.594Z,66.10
2023-03-28T22:25:53.180Z,65.82
2023-03-28T22:28:24.611Z,65.41
2023-03-28T22:30:56.325Z,66.66
2023-03-28T22:33:25.405Z,66.88
2023-03-28T22:35:53.184Z,66.17
2023-03-28T22:38:20.408Z,66.20
2023-03-28T22:40:47.777Z,66.07
2023-03-28T22:43:15.601Z,66.31
2023-03-28T22:45:43.094Z,66.13
2023-03-28T22:48:16.246Z,66.55
2023-03-28T22:50:47.323Z,66.68
2023-03-28T22:53:15.233Z,66.52
2023-03-28T22:55:43.909Z,66.68
2023-03-28T22:58:11.863Z,67.82
2023-03-28T23:00:39.008Z,67.46
2023-03-28T23:03:08.064Z,66.80
2023-03-28T23:05:35.797Z,66.23
2023-03-28T23:08:02.991Z,66.65
2023-03-28T23:10:30.009Z,67.82
2023-03-28T23:12:56.984Z,67.20
2023-03-28T23:15:24.197Z,67.94
2023-03-28T23:17:52.213Z,68.25
2023-03-28T23:20:19.786Z,67.02
2023-03-28T23:22:48.650Z,67.22
2023-03-28T23:25:18.811Z,67.41
2023-03-28T23:27:46.637Z,67.47
2023-03-28T23:30:15.273Z,67.69
2023-03-28T23:32:42.411Z,67.50
2023-03-28T23:35:10.835Z,67.01
2023-03-28T23:37:38.546Z,67.32
2023-03-28T23:40:10.624Z,67.21
2023-03-28T23:42:39.155Z,68.24
2023-03-28T23:45:06.901Z,68.05
2023-03-28T23:47:33.967Z,68.09
2023-03-28T23:50:00.958Z,67.93
2023-03-28T23:52:27.938Z,68.09
2023-03-28T23:54:54.912Z,68.64
2023-03-28T23:57:25.343Z,68.02
2023-03-28T23:59:52.416Z,67.72
